Time;durP1;ratioP1;P1;durP2;ratioP2;P2;SDS_P1;SDS_P2;PMS_P1;PMS_P2;Temp;Humidity;BMP_temperature;BMP_pressure;BME280_temperature;BME280_humidity;BME280_pressure;Samples;Min_cycle;Max_cycle;Signal;HPM_P1;HPM_P2
2021/09/03 00:01:34;;;;;;;37.77;4.40;;;13.40;99.70;;;;;;5053219;28;20832;-67
2021/09/03 00:04:01;;;;;;;39.90;4.50;;;13.30;99.70;;;;;;5053107;28;20938;-67
2021/09/03 00:06:27;;;;;;;40.67;4.80;;;13.30;99.70;;;;;;5053153;28;20985;-66
2021/09/03 00:08:54;;;;;;;40.97;4.40;;;13.30;99.70;;;;;;5052962;28;20862;-67
2021/09/03 00:11:21;;;;;;;39.77;4.57;;;13.30;99.70;;;;;;5052994;28;20873;-67
2021/09/03 00:13:49;;;;;;;37.40;4.33;;;13.30;99.70;;;;;;5053157;28;20444;-67
2021/09/03 00:16:18;;;;;;;37.40;4.13;;;13.30;99.70;;;;;;5052926;28;20464;-67
2021/09/03 00:18:45;;;;;;;38.07;4.43;;;13.20;99.70;;;;;;5052572;28;20900;-67
2021/09/03 00:21:12;;;;;;;41.63;4.63;;;13.20;99.70;;;;;;5052866;28;20451;-66
2021/09/03 00:23:38;;;;;;;40.00;5.20;;;13.20;99.70;;;;;;5052824;28;20493;-66
2021/09/03 00:26:05;;;;;;;39.50;5.03;;;13.10;99.70;;;;;;5052691;28;20478;-66
2021/09/03 00:28:32;;;;;;;43.53;4.77;;;13.10;99.70;;;;;;5052469;28;20443;-66
2021/09/03 00:31:00;;;;;;;42.27;6.20;;;13.00;99.70;;;;;;5052657;28;20444;-67
2021/09/03 00:33:26;;;;;;;43.43;5.83;;;13.10;99.70;;;;;;5052738;28;20446;-68
2021/09/03 00:35:53;;;;;;;42.60;5.77;;;13.10;99.70;;;;;;5052630;28;20471;-67
2021/09/03 00:38:20;;;;;;;38.57;4.60;;;13.10;99.70;;;;;;5052572;28;20440;-67
2021/09/03 00:40:46;;;;;;;40.30;5.10;;;13.10;99.70;;;;;;5052439;28;20483;-67
2021/09/03 00:43:13;;;;;;;43.10;5.40;;;13.00;99.70;;;;;;5052616;28;20901;-67
2021/09/03 00:45:40;;;;;;;43.00;5.27;;;13.00;99.70;;;;;;5051464;28;20491;-67
2021/09/03 00:48:08;;;;;;;40.80;4.77;;;12.90;99.70;;;;;;5052610;28;20926;-66
2021/09/03 00:50:35;;;;;;;43.63;5.50;;;12.80;99.70;;;;;;5051438;28;20447;-67
2021/09/03 00:53:03;;;;;;;39.00;4.70;;;12.80;99.70;;;;;;5052368;28;20444;-67
2021/09/03 00:55:30;;;;;;;42.27;6.27;;;12.80;99.70;;;;;;5052321;28;20505;-67
2021/09/03 00:57:58;;;;;;;42.13;5.33;;;12.70;99.70;;;;;;5052159;28;20455;-67
2021/09/03 01:00:25;;;;;;;39.03;4.83;;;12.70;99.70;;;;;;5051901;28;20486;-67
2021/09/03 01:02:51;;;;;;;42.70;5.37;;;12.70;99.70;;;;;;5052124;28;20454;-67
2021/09/03 01:05:22;;;;;;;39.33;5.60;;;12.60;99.70;;;;;;5051927;28;20501;-67
2021/09/03 01:07:49;;;;;;;39.23;4.47;;;12.60;99.70;;;;;;5052175;28;20470;-67
2021/09/03 01:10:18;;;;;;;38.50;4.10;;;12.60;99.70;;;;;;5051673;28;20935;-67
2021/09/03 01:12:44;;;;;;;39.03;4.47;;;12.60;99.70;;;;;;5052068;28;20866;-67
2021/09/03 01:15:11;;;;;;;39.40;4.20;;;12.60;99.70;;;;;;5051885;28;20470;-67
2021/09/03 01:17:39;;;;;;;40.53;4.47;;;12.60;99.70;;;;;;5051840;28;20474;-67
2021/09/03 01:20:07;;;;;;;39.20;3.80;;;12.60;99.70;;;;;;5051556;28;20924;-67
2021/09/03 01:22:35;;;;;;;42.80;4.70;;;12.60;99.70;;;;;;5051865;28;20474;-66
2021/09/03 01:25:02;;;;;;;38.50;4.53;;;12.50;99.70;;;;;;5051695;28;20443;-67
2021/09/03 01:27:29;;;;;;;39.80;4.90;;;12.60;99.70;;;;;;5051688;28;20467;-67
2021/09/03 01:29:55;;;;;;;38.40;4.53;;;12.50;99.70;;;;;;5051609;28;20438;-67
2021/09/03 01:32:22;;;;;;;40.03;4.00;;;12.50;99.70;;;;;;5051554;28;20531;-67
2021/09/03 01:34:49;;;;;;;38.40;4.37;;;12.50;99.70;;;;;;5051588;28;20454;-66
2021/09/03 01:37:16;;;;;;;40.87;4.80;;;12.50;99.70;;;;;;5051561;28;20497;-67
2021/09/03 01:39:44;;;;;;;37.63;4.20;;;12.60;99.70;;;;;;5051247;28;20867;-66
2021/09/03 01:42:10;;;;;;;39.57;4.27;;;12.50;99.70;;;;;;5051462;28;20450;-66
2021/09/03 01:44:37;;;;;;;39.90;4.80;;;12.50;99.70;;;;;;5051328;28;20470;-67
2021/09/03 01:47:04;;;;;;;37.23;4.30;;;12.50;99.70;;;;;;5051245;28;20478;-66
2021/09/03 01:49:31;;;;;;;39.40;4.00;;;12.50;99.70;;;;;;5050310;28;20444;-67
2021/09/03 01:51:57;;;;;;;42.40;5.50;;;12.50;99.70;;;;;;5051200;28;20970;-67
2021/09/03 01:54:24;;;;;;;36.73;4.70;;;12.50;99.70;;;;;;5051374;28;21044;-66
2021/09/03 01:56:52;;;;;;;41.73;5.37;;;12.50;99.70;;;;;;5050284;28;20464;-66
2021/09/03 01:59:19;;;;;;;42.37;4.80;;;12.40;99.70;;;;;;5051085;28;20487;-66
2021/09/03 02:01:46;;;;;;;43.27;4.60;;;12.40;99.70;;;;;;5051284;28;20450;-67
2021/09/03 02:04:12;;;;;;;41.37;4.70;;;12.40;99.70;;;;;;5051265;28;20683;-67
2021/09/03 02:06:39;;;;;;;41.03;5.00;;;12.30;99.70;;;;;;5051132;28;20490;-67
2021/09/03 02:09:06;;;;;;;39.90;4.80;;;12.30;99.70;;;;;;5050874;28;20448;-67
2021/09/03 02:11:33;;;;;;;42.10;5.50;;;12.30;99.70;;;;;;5051059;28;20828;-67
2021/09/03 02:14:01;;;;;;;42.77;5.47;;;12.20;99.70;;;;;;5051030;28;20456;-67
2021/09/03 02:16:28;;;;;;;41.83;4.90;;;12.20;99.70;;;;;;5051011;28;20472;-67
2021/09/03 02:18:54;;;;;;;40.90;5.13;;;12.20;99.70;;;;;;5050768;28;20958;-67
2021/09/03 02:21:21;;;;;;;41.10;4.73;;;12.30;99.70;;;;;;5050634;28;20568;-67
2021/09/03 02:23:48;;;;;;;37.33;4.10;;;12.30;99.70;;;;;;5050706;28;20447;-66
2021/09/03 02:26:14;;;;;;;41.33;4.93;;;12.20;99.70;;;;;;5050693;28;20884;-66
2021/09/03 02:28:41;;;;;;;38.30;4.23;;;12.20;99.70;;;;;;5050257;28;20444;-66
2021/09/03 02:31:09;;;;;;;40.17;4.90;;;12.20;99.70;;;;;;5050541;28;20451;-67
2021/09/03 02:33:36;;;;;;;42.10;4.73;;;12.20;99.70;;;;;;5050624;28;20578;-67
2021/09/03 02:36:03;;;;;;;39.13;4.70;;;12.10;99.70;;;;;;5050396;28;20459;-67
2021/09/03 02:38:29;;;;;;;45.53;5.20;;;12.10;99.70;;;;;;5050312;28;20466;-67
2021/09/03 02:40:56;;;;;;;39.70;5.50;;;12.10;99.70;;;;;;5050210;28;21013;-67
2021/09/03 02:43:23;;;;;;;39.37;4.57;;;12.20;99.70;;;;;;5050800;28;20436;-67
2021/09/03 02:45:50;;;;;;;38.57;4.30;;;12.10;99.70;;;;;;5050276;28;20479;-66
2021/09/03 02:48:18;;;;;;;40.37;4.80;;;12.00;99.70;;;;;;5050292;28;20444;-67
2021/09/03 02:50:45;;;;;;;38.40;5.07;;;12.00;99.70;;;;;;5049170;28;20443;-67
2021/09/03 02:53:11;;;;;;;40.47;5.60;;;12.00;99.70;;;;;;5050347;28;20447;-67
2021/09/03 02:55:38;;;;;;;39.23;5.27;;;11.90;99.70;;;;;;5050044;28;20460;-67
2021/09/03 02:58:05;;;;;;;43.63;4.90;;;11.90;99.70;;;;;;5050146;28;20938;-67
2021/09/03 03:00:33;;;;;;;40.63;5.03;;;11.90;99.70;;;;;;5049665;28;20573;-67
2021/09/03 03:03:00;;;;;;;40.90;4.80;;;11.90;99.70;;;;;;5050214;28;20447;-67
2021/09/03 03:05:28;;;;;;;38.00;4.37;;;11.90;99.70;;;;;;5049915;28;20554;-67
2021/09/03 03:07:55;;;;;;;41.20;5.10;;;11.90;99.70;;;;;;5049560;28;20992;-67
2021/09/03 03:10:22;;;;;;;39.07;5.17;;;11.80;99.70;;;;;;5049793;28;20448;-66
2021/09/03 03:12:53;;;;;;;38.67;4.00;;;11.70;99.70;;;;;;5050015;28;20440;-66
2021/09/03 03:15:21;;;;;;;39.50;5.30;;;11.80;99.70;;;;;;5049982;28;20444;-67
2021/09/03 03:17:48;;;;;;;39.00;4.10;;;11.70;99.70;;;;;;5049934;28;20444;-67
2021/09/03 03:20:16;;;;;;;45.53;5.87;;;11.70;99.70;;;;;;5049554;28;20486;-66
2021/09/03 03:22:44;;;;;;;39.97;4.73;;;11.60;99.70;;;;;;5049821;28;20544;-67
2021/09/03 03:25:11;;;;;;;39.40;5.13;;;11.70;99.70;;;;;;5049875;28;20774;-66
2021/09/03 03:27:37;;;;;;;37.20;4.10;;;11.70;99.70;;;;;;5049903;28;20470;-67
2021/09/03 03:30:05;;;;;;;39.07;4.53;;;11.70;99.70;;;;;;5049565;28;20931;-67
2021/09/03 03:32:31;;;;;;;43.13;5.07;;;11.60;99.70;;;;;;5049833;28;20450;-66
2021/09/03 03:34:58;;;;;;;39.57;4.30;;;11.60;99.70;;;;;;5049827;28;20448;-67
2021/09/03 03:37:25;;;;;;;39.17;4.77;;;11.60;99.70;;;;;;5049809;28;20467;-67
2021/09/03 03:39:53;;;;;;;42.97;5.80;;;11.60;99.70;;;;;;5049301;28;20476;-67
2021/09/03 03:42:20;;;;;;;40.80;5.37;;;11.60;99.70;;;;;;5049698;28;20444;-66
2021/09/03 03:44:46;;;;;;;37.80;4.63;;;11.50;99.70;;;;;;5049583;28;20450;-67
2021/09/03 03:47:13;;;;;;;43.43;4.73;;;11.60;99.70;;;;;;5049783;28;20990;-67
2021/09/03 03:49:40;;;;;;;42.23;5.47;;;11.60;99.70;;;;;;5048554;28;20458;-67
2021/09/03 03:52:07;;;;;;;40.17;5.10;;;11.60;99.70;;;;;;5049681;28;20451;-67
2021/09/03 03:54:33;;;;;;;36.87;4.23;;;11.60;99.70;;;;;;5049585;28;20447;-67
2021/09/03 03:57:01;;;;;;;42.47;4.53;;;11.60;99.70;;;;;;5049541;28;20467;-67
2021/09/03 03:59:28;;;;;;;43.63;5.00;;;11.60;99.70;;;;;;5049433;28;20751;-67
2021/09/03 04:01:55;;;;;;;42.40;5.67;;;11.60;99.70;;;;;;5049477;28;20479;-67
2021/09/03 04:04:21;;;;;;;38.17;3.90;;;11.50;99.70;;;;;;5049325;28;20447;-67
2021/09/03 04:06:48;;;;;;;44.57;4.27;;;11.50;99.70;;;;;;5049596;28;21040;-67
2021/09/03 04:09:15;;;;;;;37.50;4.73;;;11.50;99.70;;;;;;5049309;28;21447;-67
2021/09/03 04:11:42;;;;;;;37.70;4.20;;;11.20;99.70;;;;;;5049420;28;20442;-67
2021/09/03 04:14:10;;;;;;;38.73;5.10;;;11.20;99.70;;;;;;5049445;28;20522;-67
2021/09/03 04:16:37;;;;;;;38.63;4.60;;;11.30;99.70;;;;;;5049429;28;20456;-67
2021/09/03 04:19:04;;;;;;;39.97;5.60;;;11.30;99.70;;;;;;5049010;28;20448;-67
2021/09/03 04:21:31;;;;;;;38.63;5.00;;;11.20;99.70;;;;;;5052894;28;20483;-67
2021/09/03 04:23:57;;;;;;;40.27;4.77;;;11.30;99.70;;;;;;5052748;28;20451;-67
2021/09/03 04:26:24;;;;;;;39.63;4.40;;;11.30;99.70;;;;;;5052830;28;20459;-67
2021/09/03 04:28:51;;;;;;;36.10;4.00;;;11.30;99.70;;;;;;5052943;28;20462;-67
2021/09/03 04:31:19;;;;;;;35.70;4.50;;;11.30;99.70;;;;;;5052740;28;20452;-67
2021/09/03 04:33:45;;;;;;;37.27;4.60;;;11.30;99.70;;;;;;5052659;28;20829;-67
2021/09/03 04:36:12;;;;;;;36.80;3.70;;;11.40;99.70;;;;;;5052612;28;20463;-67
2021/09/03 04:38:39;;;;;;;37.10;4.13;;;11.40;99.70;;;;;;5052456;28;20474;-67
2021/09/03 04:41:05;;;;;;;40.50;5.00;;;11.30;99.70;;;;;;5052485;28;20487;-67
2021/09/03 04:43:32;;;;;;;39.30;4.50;;;11.30;99.70;;;;;;5052650;28;20958;-67
2021/09/03 04:45:59;;;;;;;36.43;4.10;;;11.30;99.70;;;;;;5052226;28;20482;-67
2021/09/03 04:48:27;;;;;;;39.30;4.67;;;11.40;99.70;;;;;;5052429;28;20808;-67
2021/09/03 04:50:53;;;;;;;39.10;4.43;;;11.30;99.70;;;;;;5051600;28;20440;-67
2021/09/03 04:53:20;;;;;;;39.70;4.70;;;11.30;99.70;;;;;;5052499;28;20509;-66
2021/09/03 04:55:47;;;;;;;40.30;5.00;;;11.30;99.70;;;;;;5052158;28;20475;-66
2021/09/03 04:58:14;;;;;;;37.13;4.23;;;11.20;99.70;;;;;;5052606;28;20451;-67
2021/09/03 05:00:40;;;;;;;44.13;4.80;;;11.30;99.70;;;;;;5051748;28;20536;-67
2021/09/03 05:03:07;;;;;;;40.37;4.57;;;11.30;99.70;;;;;;5052292;28;20943;-67
2021/09/03 05:05:35;;;;;;;38.47;4.27;;;11.20;99.70;;;;;;5051997;28;20451;-67
2021/09/03 05:08:02;;;;;;;40.67;4.33;;;11.20;99.70;;;;;;5052435;28;20452;-67
2021/09/03 05:10:28;;;;;;;39.97;5.17;;;11.30;99.70;;;;;;5051728;28;20449;-65
2021/09/03 05:12:55;;;;;;;39.10;4.60;;;11.30;99.70;;;;;;5052145;28;20801;-67
2021/09/03 05:15:30;;;;;;;41.57;4.77;;;11.30;99.70;;;;;;5052021;28;20470;-67
2021/09/03 05:17:57;;;;;;;38.40;4.10;;;11.30;99.70;;;;;;5052222;28;20447;-67
2021/09/03 05:20:23;;;;;;;38.43;4.40;;;11.30;99.70;;;;;;5052092;28;20529;-66
2021/09/03 05:22:51;;;;;;;36.97;4.53;;;11.20;99.70;;;;;;5052241;28;20440;-67
2021/09/03 05:25:18;;;;;;;35.87;3.67;;;11.30;99.70;;;;;;5051860;28;20448;-66
2021/09/03 05:27:45;;;;;;;37.77;4.57;;;11.40;99.70;;;;;;5052116;28;20834;-66
2021/09/03 05:30:14;;;;;;;38.90;4.10;;;11.40;99.70;;;;;;5051440;28;20875;-66
2021/09/03 05:32:40;;;;;;;37.50;4.27;;;11.40;99.70;;;;;;5051804;28;20451;-67
2021/09/03 05:35:08;;;;;;;37.43;4.27;;;11.40;99.70;;;;;;5051851;28;20451;-66
2021/09/03 05:37:35;;;;;;;41.23;4.27;;;11.40;99.70;;;;;;5052110;28;20459;-66
2021/09/03 05:40:04;;;;;;;38.63;4.30;;;11.40;99.70;;;;;;5051500;28;20455;-67
2021/09/03 05:42:31;;;;;;;37.40;3.87;;;11.50;99.70;;;;;;5051607;28;20440;-66
2021/09/03 05:44:57;;;;;;;40.00;4.60;;;11.50;99.70;;;;;;5051523;28;20439;-66
2021/09/03 05:47:24;;;;;;;39.43;4.67;;;11.70;99.70;;;;;;5051247;28;20475;-67
2021/09/03 05:49:51;;;;;;;40.73;5.10;;;11.80;99.70;;;;;;5050418;28;20440;-66
2021/09/03 05:52:17;;;;;;;38.03;4.30;;;12.00;99.70;;;;;;5051368;28;20462;-66
2021/09/03 05:54:44;;;;;;;37.97;4.50;;;12.10;99.70;;;;;;5051601;28;20440;-66
2021/09/03 05:57:12;;;;;;;38.37;4.63;;;12.20;99.70;;;;;;5052899;28;20463;-66
2021/09/03 05:59:39;;;;;;;37.07;4.23;;;12.20;99.70;;;;;;5051147;28;20436;-66
2021/09/03 06:02:05;;;;;;;38.50;4.27;;;12.30;99.70;;;;;;5051068;28;20486;-66
2021/09/03 06:04:32;;;;;;;42.07;5.47;;;12.40;99.70;;;;;;5051231;28;20448;-67
2021/09/03 06:06:59;;;;;;;43.30;4.37;;;12.40;99.70;;;;;;5051084;28;20470;-67
2021/09/03 06:09:25;;;;;;;38.20;4.10;;;12.40;99.70;;;;;;5050985;28;20475;-66
2021/09/03 06:11:52;;;;;;;37.17;4.10;;;12.40;99.70;;;;;;5050759;28;20443;-67
2021/09/03 06:14:22;;;;;;;39.90;4.60;;;12.70;99.70;;;;;;5050912;28;20459;-67
2021/09/03 06:16:49;;;;;;;51.97;7.13;;;12.80;99.70;;;;;;5050539;28;20957;-66
2021/09/03 06:19:16;;;;;;;41.80;6.03;;;13.00;99.70;;;;;;5050710;28;20439;-66
2021/09/03 06:21:42;;;;;;;44.40;5.90;;;13.10;99.70;;;;;;5050584;28;20479;-67
2021/09/03 06:26:50;;;;;;;40.53;4.60;;;13.30;99.70;;;;;;5050413;28;20461;-66
2021/09/03 06:29:36;;;;;;;40.70;4.63;;;13.40;99.70;;;;;;5050440;28;20447;-66
2021/09/03 06:32:06;;;;;;;40.23;4.77;;;13.60;99.70;;;;;;5050778;28;20440;-66
2021/09/03 06:34:33;;;;;;;37.00;4.13;;;13.70;99.70;;;;;;5050673;28;20444;-66
2021/09/03 06:36:59;;;;;;;40.43;4.33;;;13.90;99.70;;;;;;5050553;28;20468;-66
2021/09/03 06:39:26;;;;;;;42.83;5.37;;;14.00;99.70;;;;;;5050550;28;20435;-66
2021/09/03 06:41:53;;;;;;;38.80;4.00;;;14.10;99.70;;;;;;5049956;28;20483;-66
2021/09/03 06:44:19;;;;;;;39.60;4.87;;;14.20;99.70;;;;;;5050463;28;20474;-66
2021/09/03 06:46:46;;;;;;;40.47;4.67;;;14.30;99.70;;;;;;5050440;28;20487;-66
2021/09/03 06:49:14;;;;;;;37.60;4.60;;;14.40;99.70;;;;;;5049652;28;20467;-68
2021/09/03 06:51:41;;;;;;;38.70;4.40;;;14.40;99.70;;;;;;5050391;28;20451;-68
2021/09/03 06:54:08;;;;;;;39.37;4.30;;;14.80;99.70;;;;;;5050275;28;20451;-66
2021/09/03 06:56:34;;;;;;;38.63;6.70;;;15.70;99.70;;;;;;5050081;28;20483;-67
2021/09/03 06:59:02;;;;;;;36.40;7.00;;;16.70;99.70;;;;;;5049984;28;20474;-67
2021/09/03 07:01:29;;;;;;;36.10;6.13;;;17.10;99.70;;;;;;5050170;28;20476;-67
2021/09/03 07:03:56;;;;;;;37.60;9.07;;;17.50;99.70;;;;;;5050120;28;20443;-66
2021/09/03 07:06:24;;;;;;;42.17;16.97;;;17.80;99.70;;;;;;5049986;28;20832;-67
2021/09/03 07:08:51;;;;;;;47.20;28.50;;;18.20;99.70;;;;;;5049870;28;20453;-67
2021/09/03 07:11:18;;;;;;;43.40;21.00;;;18.60;99.70;;;;;;5049925;28;20443;-67
2021/09/03 07:13:45;;;;;;;40.90;19.33;;;18.90;99.70;;;;;;5050290;28;20447;-67
2021/09/03 07:16:12;;;;;;;45.47;21.77;;;19.20;99.70;;;;;;5050247;28;20895;-67
2021/09/03 07:18:38;;;;;;;36.53;7.40;;;19.40;99.70;;;;;;5049910;28;20915;-66
2021/09/03 07:21:05;;;;;;;37.67;5.20;;;19.80;99.70;;;;;;5049972;28;20474;-67
2021/09/03 07:23:33;;;;;;;35.10;5.10;;;19.60;99.70;;;;;;5050348;28;20208;-67
2021/09/03 07:26:01;;;;;;;34.40;4.60;;;19.60;99.70;;;;;;5050082;28;20227;-67
2021/09/03 07:28:28;;;;;;;35.87;4.20;;;19.90;99.70;;;;;;5047998;28;20550;-67
2021/09/03 07:30:55;;;;;;;36.37;5.50;;;19.90;99.70;;;;;;5049206;28;20196;-67
2021/09/03 07:33:22;;;;;;;35.37;6.07;;;20.10;99.70;;;;;;5049676;28;20205;-67
2021/09/03 07:35:48;;;;;;;35.57;4.90;;;20.40;99.70;;;;;;5049707;28;20220;-67
2021/09/03 07:38:16;;;;;;;35.30;4.37;;;20.00;99.70;;;;;;5049781;28;20209;-67
2021/09/03 07:40:44;;;;;;;34.83;4.23;;;19.70;99.70;;;;;;5049385;28;20200;-67
2021/09/03 07:43:13;;;;;;;35.00;4.37;;;19.40;99.70;;;;;;5049680;28;20545;-67
2021/09/03 07:45:40;;;;;;;36.27;4.40;;;19.00;99.70;;;;;;5049398;28;20507;-67
2021/09/03 07:48:07;;;;;;;39.60;4.93;;;19.30;99.70;;;;;;5049498;28;20443;-67
2021/09/03 07:50:34;;;;;;;36.40;4.37;;;18.90;99.70;;;;;;5048623;28;20450;-66
2021/09/03 07:53:02;;;;;;;37.07;4.60;;;18.60;99.70;;;;;;5049654;28;20451;-67
2021/09/03 07:55:28;;;;;;;39.70;4.43;;;18.40;99.70;;;;;;5053429;28;20452;-66
2021/09/03 07:57:56;;;;;;;37.33;5.10;;;18.40;99.70;;;;;;5053199;28;20443;-66
2021/09/03 08:00:23;;;;;;;36.30;5.40;;;18.30;99.70;;;;;;5053071;28;20519;-67
2021/09/03 08:02:50;;;;;;;39.27;5.93;;;18.30;99.70;;;;;;5053127;28;20483;-67
2021/09/03 08:05:17;;;;;;;36.83;5.83;;;18.00;99.70;;;;;;5053211;28;20448;-66
2021/09/03 08:07:43;;;;;;;37.20;5.17;;;17.90;99.70;;;;;;5053080;28;20448;-66
2021/09/03 08:10:12;;;;;;;37.77;5.90;;;17.90;99.70;;;;;;5052981;28;20454;-66
2021/09/03 08:12:39;;;;;;;36.00;5.83;;;17.80;99.70;;;;;;5053049;28;20440;-66
2021/09/03 08:15:09;;;;;;;37.33;4.80;;;17.70;99.70;;;;;;5053175;28;21072;-66
2021/09/03 08:17:36;;;;;;;34.70;4.60;;;17.70;99.70;;;;;;5053144;28;20455;-66
2021/09/03 08:20:04;;;;;;;36.03;4.40;;;17.60;99.70;;;;;;5052740;28;20446;-67
2021/09/03 08:22:30;;;;;;;34.47;4.43;;;17.70;99.70;;;;;;5052795;28;21037;-67
2021/09/03 08:24:57;;;;;;;38.30;4.97;;;17.60;99.70;;;;;;5053030;28;20443;-66
2021/09/03 08:27:24;;;;;;;36.43;4.70;;;17.60;99.70;;;;;;5052493;28;20467;-66
2021/09/03 08:29:50;;;;;;;38.47;5.97;;;17.60;99.70;;;;;;5052717;28;20452;-66
2021/09/03 08:32:19;;;;;;;35.10;6.07;;;17.80;99.70;;;;;;5052855;28;20435;-67
2021/09/03 08:34:45;;;;;;;40.30;9.00;;;17.80;99.70;;;;;;5052679;28;20448;-66
2021/09/03 08:37:12;;;;;;;40.17;11.27;;;17.70;99.70;;;;;;5052547;28;20460;-66
2021/09/03 08:39:39;;;;;;;34.73;6.00;;;17.80;99.70;;;;;;5052210;28;20922;-66
2021/09/03 08:42:09;;;;;;;38.50;9.47;;;17.80;99.70;;;;;;5052505;28;20487;-67
2021/09/03 08:44:35;;;;;;;38.30;11.87;;;17.90;99.70;;;;;;5052327;28;20448;-67
2021/09/03 08:47:02;;;;;;;43.07;12.30;;;17.90;99.70;;;;;;5052484;28;20476;-66
2021/09/03 08:49:30;;;;;;;41.87;14.90;;;17.90;99.70;;;;;;5051353;28;20484;-66
2021/09/03 08:51:58;;;;;;;46.97;20.00;;;17.80;99.70;;;;;;5052546;28;20444;-66
2021/09/03 08:54:24;;;;;;;40.97;15.00;;;17.80;99.70;;;;;;5052184;28;20447;-66
2021/09/03 08:56:51;;;;;;;39.53;14.57;;;17.90;99.70;;;;;;5048504;28;20468;-66
2021/09/03 08:59:18;;;;;;;36.73;10.50;;;18.10;99.70;;;;;;5049992;28;20535;-66
2021/09/03 09:02:09;;;;;;;41.93;11.63;;;18.10;99.70;;;;;;5047860;28;20479;-68
2021/09/03 09:04:39;;;;;;;44.13;12.33;;;18.00;99.70;;;;;;5048279;28;21004;-66
2021/09/03 09:07:07;;;;;;;39.90;9.87;;;18.20;99.70;;;;;;5051106;28;20832;-66
2021/09/03 09:09:35;;;;;;;40.03;11.73;;;18.20;99.70;;;;;;5050667;28;20451;-68
2021/09/03 09:12:04;;;;;;;40.20;13.03;;;18.10;99.70;;;;;;5051991;28;20436;-66
2021/09/03 09:14:51;;;;;;;40.23;13.50;;;18.20;99.70;;;;;;5051523;28;20482;-66
2021/09/03 09:17:28;;;;;;;43.57;14.50;;;18.20;99.70;;;;;;5051756;28;20474;-67
2021/09/03 09:19:57;;;;;;;40.70;13.20;;;18.20;99.70;;;;;;5051427;28;20451;-66
2021/09/03 09:22:24;;;;;;;39.20;13.90;;;18.40;99.70;;;;;;5051528;28;20511;-67
2021/09/03 09:24:50;;;;;;;40.83;15.70;;;18.50;99.70;;;;;;5063084;28;20443;-66
2021/09/03 09:27:24;;;;;;;40.50;13.70;;;18.60;99.70;;;;;;5051543;28;20456;-66
2021/09/03 09:29:51;;;;;;;38.30;10.90;;;18.90;99.70;;;;;;5051645;28;20577;-67
2021/09/03 09:32:18;;;;;;;45.50;26.03;;;19.50;99.70;;;;;;5051297;28;20863;-67
2021/09/03 09:34:44;;;;;;;36.33;6.70;;;20.00;99.70;;;;;;5051901;28;20439;-67
2021/09/03 09:37:16;;;;;;;36.17;4.13;;;20.50;99.70;;;;;;5050998;28;20690;-67
2021/09/03 09:39:46;;;;;;;36.23;5.00;;;21.00;99.70;;;;;;5042076;28;20525;-68
2021/09/03 09:42:20;;;;;;;36.23;3.63;;;21.10;99.70;;;;;;5048266;28;20487;-67
2021/09/03 09:44:47;;;;;;;34.67;3.60;;;21.80;99.70;;;;;;5050513;28;20451;-67
2021/09/03 09:47:14;;;;;;;34.63;4.23;;;22.30;99.70;;;;;;5047235;28;20220;-67
2021/09/03 09:49:41;;;;;;;33.57;4.07;;;22.60;99.70;;;;;;5045952;28;20208;-67
2021/09/03 09:52:08;;;;;;;33.85;4.80;;;22.60;99.70;;;;;;5050027;28;20195;-67
2021/09/03 09:54:36;;;;;;;34.97;4.55;;;22.80;99.70;;;;;;5049468;28;20212;-67
2021/09/03 09:57:05;;;;;;;35.10;4.35;;;23.30;99.70;;;;;;5049671;28;20227;-67
2021/09/03 09:59:34;;;;;;;34.33;3.70;;;23.40;99.70;;;;;;5049121;28;20205;-67
2021/09/03 10:02:04;;;;;;;34.38;3.65;;;23.20;99.50;;;;;;5045725;28;20213;-67
2021/09/03 10:04:32;;;;;;;35.57;4.10;;;23.00;99.70;;;;;;5050336;28;20686;-67
2021/09/03 10:07:01;;;;;;;32.57;3.50;;;22.80;99.70;;;;;;5050591;28;20213;-67
2021/09/03 10:09:30;;;;;;;35.10;4.30;;;22.30;99.70;;;;;;5050408;28;20439;-67
2021/09/03 10:12:00;;;;;;;35.20;4.07;;;22.20;99.70;;;;;;5050160;28;20447;-67
2021/09/03 10:14:29;;;;;;;36.47;4.40;;;21.90;99.70;;;;;;5050279;28;20485;-67
2021/09/03 10:16:58;;;;;;;35.47;4.23;;;21.80;99.70;;;;;;5049542;28;20464;-67
2021/09/03 10:19:27;;;;;;;34.47;4.00;;;21.70;99.70;;;;;;5038401;28;20757;-66
2021/09/03 10:22:00;;;;;;;37.17;4.23;;;21.20;99.70;;;;;;5066735;28;20481;-67
2021/09/03 10:24:27;;;;;;;35.80;4.43;;;21.30;99.70;;;;;;5051956;28;20995;-67
2021/09/03 10:26:56;;;;;;;35.57;4.07;;;21.20;99.70;;;;;;5050284;28;20467;-66
2021/09/03 10:29:36;;;;;;;35.80;4.70;;;21.10;99.70;;;;;;5050322;28;20922;-66
2021/09/03 10:32:25;;;;;;;38.37;5.10;;;21.10;99.70;;;;;;5050654;28;20827;-67
2021/09/03 10:34:58;;;;;;;38.20;5.40;;;21.00;99.70;;;;;;5050397;28;20539;-67
2021/09/03 10:37:37;;;;;;;35.37;4.73;;;20.90;99.70;;;;;;5051619;28;20459;-67
2021/09/03 10:40:08;;;;;;;37.23;5.50;;;20.90;99.70;;;;;;5050679;28;20961;-67
2021/09/03 10:42:53;;;;;;;36.00;5.00;;;20.90;99.70;;;;;;5050361;28;20484;-67
2021/09/03 10:45:25;;;;;;;34.80;5.20;;;20.90;99.70;;;;;;5050036;28;20451;-67
2021/09/03 10:48:02;;;;;;;33.97;4.20;;;20.90;99.70;;;;;;5050020;28;20460;-67
2021/09/03 10:50:32;;;;;;;34.47;4.50;;;20.70;99.70;;;;;;5045237;28;20531;-64
2021/09/03 10:53:33;;;;;;;32.90;4.10;;;20.90;99.70;;;;;;5051309;28;20439;-67
2021/09/03 10:56:04;;;;;;;40.03;5.33;;;21.00;99.70;;;;;;5049548;28;20847;-67
2021/09/03 10:58:33;;;;;;;36.37;4.70;;;20.90;99.70;;;;;;5050052;28;20505;-68
2021/09/03 11:01:47;;;;;;;34.93;4.77;;;21.00;99.70;;;;;;5049776;28;20443;-67
2021/09/03 11:04:15;;;;;;;38.20;5.17;;;20.90;99.70;;;;;;5049905;28;20454;-67
2021/09/03 11:06:50;;;;;;;34.23;4.37;;;21.00;99.70;;;;;;5061937;28;20524;-67
2021/09/03 11:09:23;;;;;;;36.27;4.70;;;21.00;99.70;;;;;;5069667;28;20871;-67
2021/09/03 11:11:51;;;;;;;34.30;4.60;;;21.00;99.70;;;;;;5058970;28;20483;-67
2021/09/03 11:14:19;;;;;;;34.37;4.80;;;21.00;99.70;;;;;;5049647;28;20440;-67
2021/09/03 11:16:48;;;;;;;34.03;3.93;;;21.20;99.70;;;;;;5049967;28;20758;-68
2021/09/03 11:19:18;;;;;;;36.93;4.50;;;21.10;99.70;;;;;;5049309;28;20973;-68
2021/09/03 11:21:47;;;;;;;35.57;4.60;;;21.00;99.70;;;;;;5049866;28;20946;-66
2021/09/03 11:24:16;;;;;;;33.77;4.03;;;21.10;99.70;;;;;;5049474;28;20479;-66
2021/09/03 11:26:43;;;;;;;35.20;4.30;;;21.00;99.70;;;;;;5053674;28;20933;-67
2021/09/03 11:29:22;;;;;;;34.07;4.07;;;21.00;99.70;;;;;;5069137;28;20446;-67
2021/09/03 11:31:58;;;;;;;34.80;4.70;;;21.10;99.70;;;;;;5053423;28;20443;-67
2021/09/03 11:34:56;;;;;;;35.30;4.30;;;21.20;99.70;;;;;;5053682;28;20546;-66
2021/09/03 11:37:36;;;;;;;34.67;4.10;;;21.40;99.70;;;;;;5052969;28;21066;-67
2021/09/03 11:40:11;;;;;;;34.93;4.50;;;21.30;99.70;;;;;;5051658;28;20444;-67
2021/09/03 11:42:40;;;;;;;35.67;4.43;;;21.40;99.70;;;;;;5052987;28;20870;-67
2021/09/03 11:45:09;;;;;;;34.73;4.40;;;21.30;99.70;;;;;;5054311;28;20444;-66
2021/09/03 11:47:38;;;;;;;33.90;4.57;;;21.20;99.70;;;;;;5051310;28;20495;-67
2021/09/03 11:50:11;;;;;;;34.10;4.80;;;21.30;99.70;;;;;;5051490;28;20487;-66
2021/09/03 11:52:41;;;;;;;35.00;4.70;;;21.30;99.70;;;;;;5053138;28;20474;-68
2021/09/03 11:55:13;;;;;;;33.90;4.30;;;21.20;99.70;;;;;;5053457;28;20953;-67
2021/09/03 11:57:52;;;;;;;34.67;3.97;;;21.20;99.70;;;;;;5052251;28;20516;-67
2021/09/03 12:00:20;;;;;;;36.07;4.60;;;21.30;99.70;;;;;;5052134;28;20447;-67
2021/09/03 12:02:49;;;;;;;34.23;4.60;;;21.40;99.70;;;;;;5053033;28;20483;-67
2021/09/03 12:05:18;;;;;;;34.97;4.60;;;21.50;99.70;;;;;;5054022;28;20470;-66
2021/09/03 12:08:00;;;;;;;36.40;5.20;;;21.60;99.70;;;;;;5052853;28;20451;-65
2021/09/03 12:10:36;;;;;;;35.80;5.10;;;21.60;99.70;;;;;;5052465;28;20454;-66
2021/09/03 12:13:11;;;;;;;33.40;3.97;;;21.60;99.70;;;;;;5053015;28;20447;-67
2021/09/03 12:15:39;;;;;;;34.07;4.70;;;21.50;99.70;;;;;;5053190;28;20463;-66
2021/09/03 12:18:18;;;;;;;33.63;4.90;;;21.40;99.70;;;;;;5051109;28;20450;-67
2021/09/03 12:20:50;;;;;;;32.80;4.30;;;21.30;99.70;;;;;;5051918;28;20443;-66
2021/09/03 12:23:17;;;;;;;34.07;4.37;;;21.70;99.70;;;;;;5052391;28;20485;-67
2021/09/03 12:25:44;;;;;;;34.20;4.90;;;21.80;99.70;;;;;;5069407;28;20463;-66
2021/09/03 12:28:12;;;;;;;32.90;4.97;;;21.80;99.70;;;;;;5072721;28;20454;-67
2021/09/03 12:30:41;;;;;;;34.20;4.17;;;21.40;99.70;;;;;;5072072;28;20447;-67
2021/09/03 12:33:30;;;;;;;32.70;3.97;;;21.30;99.70;;;;;;5059229;28;20440;-65
2021/09/03 12:36:05;;;;;;;33.57;4.27;;;21.50;99.70;;;;;;5051500;28;20463;-67
2021/09/03 12:38:34;;;;;;;35.57;4.50;;;21.50;99.70;;;;;;5051004;28;20446;-66
2021/09/03 12:41:10;;;;;;;33.80;4.77;;;21.50;99.70;;;;;;5061131;28;20439;-67
2021/09/03 12:43:37;;;;;;;33.70;4.53;;;21.20;99.70;;;;;;5072221;28;20478;-66
2021/09/03 12:46:12;;;;;;;33.50;4.20;;;21.30;99.70;;;;;;5071863;28;20536;-67